Terminal Aerodrome Forecast
Issued by NWS

Home | Current Version | Previous Version | Text Only | Print | Product List | Glossary On
Versions: 1 2 3 4 5 6 7 8 9 10 11 12 13 14 15 16 17 18
000
FTUS46 KOTX 172328
TAFSFF
TAF
KSFF 172328Z 1800/1824 20006KT P6SM -RA SCT015 BKN040 OVC060
      TEMPO 1800/1804 -RA BKN015 OVC025
     FM180400 20006KT P6SM RA OVC015
     FM180900 22013KT P6SM -SHRA SCT015 OVC035
     FM181100 22013G20KT P6SM VCSH SCT015 BKN040
     FM181800 24016G22KT P6SM BKN050
     FM182300 24014G20KT P6SM BKN100=

USA.gov is the U.S. government's official web portal to all federal, state and local government web resources and services.